sensor_id;sensor_type;location;lat;lon;timestamp;P1;durP1;ratioP1;P2;durP2;ratioP2
47669;SDS011;33408;52.062;11.722;2023-02-15T00:01:22;58.97;;;37.72;;
47669;SDS011;33408;52.062;11.722;2023-02-15T00:03:48;54.95;;;35.75;;
47669;SDS011;33408;52.062;11.722;2023-02-15T00:06:16;51.50;;;35.67;;
47669;SDS011;33408;52.062;11.722;2023-02-15T00:08:44;53.05;;;37.38;;
47669;SDS011;33408;52.062;11.722;2023-02-15T00:11:11;58.88;;;39.05;;
47669;SDS011;33408;52.062;11.722;2023-02-15T00:13:39;57.47;;;38.35;;
47669;SDS011;33408;52.062;11.722;2023-02-15T00:16:07;51.13;;;36.05;;
47669;SDS011;33408;52.062;11.722;2023-02-15T00:18:35;55.78;;;37.42;;
47669;SDS011;33408;52.062;11.722;2023-02-15T00:21:03;57.53;;;38.60;;
47669;SDS011;33408;52.062;11.722;2023-02-15T00:23:30;53.17;;;37.42;;
47669;SDS011;33408;52.062;11.722;2023-02-15T00:26:08;59.22;;;38.95;;
47669;SDS011;33408;52.062;11.722;2023-02-15T00:28:35;57.03;;;37.90;;
47669;SDS011;33408;52.062;11.722;2023-02-15T00:31:03;51.53;;;36.00;;
47669;SDS011;33408;52.062;11.722;2023-02-15T00:33:31;59.83;;;38.03;;
47669;SDS011;33408;52.062;11.722;2023-02-15T00:35:58;56.78;;;38.90;;
47669;SDS011;33408;52.062;11.722;2023-02-15T00:38:25;58.50;;;39.55;;
47669;SDS011;33408;52.062;11.722;2023-02-15T00:40:53;59.65;;;39.45;;
47669;SDS011;33408;52.062;11.722;2023-02-15T00:43:21;63.03;;;41.45;;
47669;SDS011;33408;52.062;11.722;2023-02-15T00:45:48;57.63;;;39.95;;
47669;SDS011;33408;52.062;11.722;2023-02-15T00:48:14;61.17;;;39.20;;
47669;SDS011;33408;52.062;11.722;2023-02-15T00:50:41;61.97;;;40.17;;
47669;SDS011;33408;52.062;11.722;2023-02-15T00:53:10;61.60;;;40.72;;
47669;SDS011;33408;52.062;11.722;2023-02-15T00:55:37;54.33;;;38.17;;
47669;SDS011;33408;52.062;11.722;2023-02-15T00:58:04;57.75;;;38.60;;
47669;SDS011;33408;52.062;11.722;2023-02-15T01:00:32;54.83;;;38.80;;
47669;SDS011;33408;52.062;11.722;2023-02-15T01:02:59;58.20;;;39.22;;
47669;SDS011;33408;52.062;11.722;2023-02-15T01:05:26;62.22;;;41.08;;
47669;SDS011;33408;52.062;11.722;2023-02-15T01:07:54;63.63;;;38.90;;
47669;SDS011;33408;52.062;11.722;2023-02-15T01:10:21;60.92;;;40.15;;
47669;SDS011;33408;52.062;11.722;2023-02-15T01:12:47;60.25;;;40.78;;
47669;SDS011;33408;52.062;11.722;2023-02-15T01:15:15;57.60;;;40.10;;
47669;SDS011;33408;52.062;11.722;2023-02-15T01:17:43;53.70;;;38.00;;
47669;SDS011;33408;52.062;11.722;2023-02-15T01:20:16;58.17;;;39.83;;
47669;SDS011;33408;52.062;11.722;2023-02-15T01:22:42;60.38;;;39.17;;
47669;SDS011;33408;52.062;11.722;2023-02-15T01:25:09;58.25;;;38.10;;
47669;SDS011;33408;52.062;11.722;2023-02-15T01:27:36;57.00;;;38.25;;
47669;SDS011;33408;52.062;11.722;2023-02-15T01:30:03;65.53;;;40.33;;
47669;SDS011;33408;52.062;11.722;2023-02-15T01:32:30;63.47;;;40.67;;
47669;SDS011;33408;52.062;11.722;2023-02-15T01:34:58;56.53;;;37.65;;
47669;SDS011;33408;52.062;11.722;2023-02-15T01:37:24;60.47;;;40.30;;
47669;SDS011;33408;52.062;11.722;2023-02-15T01:39:51;59.75;;;39.15;;
47669;SDS011;33408;52.062;11.722;2023-02-15T01:42:20;60.22;;;39.80;;
47669;SDS011;33408;52.062;11.722;2023-02-15T01:44:51;56.42;;;39.08;;
47669;SDS011;33408;52.062;11.722;2023-02-15T01:47:21;57.60;;;37.78;;
47669;SDS011;33408;52.062;11.722;2023-02-15T01:49:52;57.20;;;37.55;;
47669;SDS011;33408;52.062;11.722;2023-02-15T01:52:26;58.60;;;39.35;;
47669;SDS011;33408;52.062;11.722;2023-02-15T01:54:53;65.85;;;41.85;;
47669;SDS011;33408;52.062;11.722;2023-02-15T01:57:21;59.47;;;39.63;;
47669;SDS011;33408;52.062;11.722;2023-02-15T01:59:50;61.45;;;39.70;;
47669;SDS011;33408;52.062;11.722;2023-02-15T02:02:21;63.60;;;41.88;;
47669;SDS011;33408;52.062;11.722;2023-02-15T02:04:50;59.70;;;39.58;;
47669;SDS011;33408;52.062;11.722;2023-02-15T02:07:22;64.53;;;41.38;;
47669;SDS011;33408;52.062;11.722;2023-02-15T02:09:52;57.97;;;41.45;;
47669;SDS011;33408;52.062;11.722;2023-02-15T02:12:18;63.47;;;41.78;;
47669;SDS011;33408;52.062;11.722;2023-02-15T02:14:47;61.13;;;41.15;;
47669;SDS011;33408;52.062;11.722;2023-02-15T02:17:16;62.17;;;41.42;;
47669;SDS011;33408;52.062;11.722;2023-02-15T02:28:43;64.50;;;41.05;;
47669;SDS011;33408;52.062;11.722;2023-02-15T02:31:31;66.38;;;41.25;;
47669;SDS011;33408;52.062;11.722;2023-02-15T02:34:11;70.68;;;43.58;;
47669;SDS011;33408;52.062;11.722;2023-02-15T02:36:44;68.38;;;42.70;;
47669;SDS011;33408;52.062;11.722;2023-02-15T02:39:22;71.93;;;43.88;;
47669;SDS011;33408;52.062;11.722;2023-02-15T02:41:56;67.25;;;43.25;;
47669;SDS011;33408;52.062;11.722;2023-02-15T02:44:28;66.80;;;42.63;;
47669;SDS011;33408;52.062;11.722;2023-02-15T02:47:02;62.70;;;41.28;;
47669;SDS011;33408;52.062;11.722;2023-02-15T02:49:36;67.25;;;42.78;;
47669;SDS011;33408;52.062;11.722;2023-02-15T02:52:05;65.10;;;43.72;;
47669;SDS011;33408;52.062;11.722;2023-02-15T02:54:33;61.72;;;41.53;;
47669;SDS011;33408;52.062;11.722;2023-02-15T02:57:02;65.95;;;43.42;;
47669;SDS011;33408;52.062;11.722;2023-02-15T02:59:34;64.13;;;41.30;;
47669;SDS011;33408;52.062;11.722;2023-02-15T03:02:05;60.30;;;40.90;;
47669;SDS011;33408;52.062;11.722;2023-02-15T03:04:39;57.78;;;39.90;;
47669;SDS011;33408;52.062;11.722;2023-02-15T03:07:09;57.40;;;41.25;;
47669;SDS011;33408;52.062;11.722;2023-02-15T03:09:38;62.25;;;41.47;;
47669;SDS011;33408;52.062;11.722;2023-02-15T03:12:08;62.45;;;40.47;;
47669;SDS011;33408;52.062;11.722;2023-02-15T03:14:37;64.70;;;40.97;;
47669;SDS011;33408;52.062;11.722;2023-02-15T03:17:05;65.15;;;41.00;;
47669;SDS011;33408;52.062;11.722;2023-02-15T03:19:34;61.70;;;41.30;;
47669;SDS011;33408;52.062;11.722;2023-02-15T03:22:04;65.95;;;41.83;;
47669;SDS011;33408;52.062;11.722;2023-02-15T03:24:35;63.85;;;42.60;;
47669;SDS011;33408;52.062;11.722;2023-02-15T03:27:09;65.15;;;41.90;;
47669;SDS011;33408;52.062;11.722;2023-02-15T03:29:42;60.58;;;40.80;;
47669;SDS011;33408;52.062;11.722;2023-02-15T03:32:11;63.85;;;42.67;;
47669;SDS011;33408;52.062;11.722;2023-02-15T03:34:41;58.15;;;40.15;;
47669;SDS011;33408;52.062;11.722;2023-02-15T03:37:10;60.50;;;41.53;;
47669;SDS011;33408;52.062;11.722;2023-02-15T03:39:42;62.22;;;41.53;;
47669;SDS011;33408;52.062;11.722;2023-02-15T03:42:16;64.35;;;41.63;;
47669;SDS011;33408;52.062;11.722;2023-02-15T03:44:50;63.80;;;39.65;;
47669;SDS011;33408;52.062;11.722;2023-02-15T03:47:22;65.90;;;42.17;;
47669;SDS011;33408;52.062;11.722;2023-02-15T03:49:52;63.08;;;42.45;;
47669;SDS011;33408;52.062;11.722;2023-02-15T03:52:22;66.70;;;43.10;;
47669;SDS011;33408;52.062;11.722;2023-02-15T03:54:52;63.05;;;41.17;;
47669;SDS011;33408;52.062;11.722;2023-02-15T03:57:20;62.35;;;39.65;;
47669;SDS011;33408;52.062;11.722;2023-02-15T04:00:09;63.80;;;41.17;;
47669;SDS011;33408;52.062;11.722;2023-02-15T04:03:07;61.85;;;39.72;;
47669;SDS011;33408;52.062;11.722;2023-02-15T04:05:38;60.40;;;40.63;;
47669;SDS011;33408;52.062;11.722;2023-02-15T04:08:06;65.90;;;41.88;;
47669;SDS011;33408;52.062;11.722;2023-02-15T04:10:33;62.20;;;43.10;;
47669;SDS011;33408;52.062;11.722;2023-02-15T04:13:17;64.43;;;41.92;;
47669;SDS011;33408;52.062;11.722;2023-02-15T04:15:43;63.42;;;41.80;;
47669;SDS011;33408;52.062;11.722;2023-02-15T04:18:27;62.85;;;41.92;;
47669;SDS011;33408;52.062;11.722;2023-02-15T04:21:12;55.25;;;39.00;;
47669;SDS011;33408;52.062;11.722;2023-02-15T04:23:57;65.18;;;42.28;;
47669;SDS011;33408;52.062;11.722;2023-02-15T04:26:41;63.15;;;40.65;;
47669;SDS011;33408;52.062;11.722;2023-02-15T04:29:08;62.65;;;42.20;;
47669;SDS011;33408;52.062;11.722;2023-02-15T04:31:35;58.20;;;40.90;;
47669;SDS011;33408;52.062;11.722;2023-02-15T04:34:01;64.05;;;42.80;;
47669;SDS011;33408;52.062;11.722;2023-02-15T04:36:28;63.67;;;41.28;;
47669;SDS011;33408;52.062;11.722;2023-02-15T04:38:54;59.10;;;40.17;;
47669;SDS011;33408;52.062;11.722;2023-02-15T04:41:22;67.22;;;42.05;;
47669;SDS011;33408;52.062;11.722;2023-02-15T04:43:49;59.42;;;40.00;;
47669;SDS011;33408;52.062;11.722;2023-02-15T04:46:15;61.35;;;39.35;;
47669;SDS011;33408;52.062;11.722;2023-02-15T04:48:42;60.30;;;39.70;;
47669;SDS011;33408;52.062;11.722;2023-02-15T04:51:09;64.13;;;43.92;;
47669;SDS011;33408;52.062;11.722;2023-02-15T04:53:36;68.00;;;45.35;;
47669;SDS011;33408;52.062;11.722;2023-02-15T04:56:02;67.65;;;44.13;;
47669;SDS011;33408;52.062;11.722;2023-02-15T04:58:31;89.93;;;48.65;;
47669;SDS011;33408;52.062;11.722;2023-02-15T05:00:57;78.57;;;46.03;;
47669;SDS011;33408;52.062;11.722;2023-02-15T05:03:24;75.15;;;45.30;;
47669;SDS011;33408;52.062;11.722;2023-02-15T05:05:51;73.82;;;48.15;;
47669;SDS011;33408;52.062;11.722;2023-02-15T05:08:17;94.43;;;52.08;;
47669;SDS011;33408;52.062;11.722;2023-02-15T05:10:44;79.80;;;45.90;;
47669;SDS011;33408;52.062;11.722;2023-02-15T05:13:10;156.88;;;47.40;;
47669;SDS011;33408;52.062;11.722;2023-02-15T05:15:38;84.95;;;47.83;;
47669;SDS011;33408;52.062;11.722;2023-02-15T05:18:05;90.25;;;44.13;;
47669;SDS011;33408;52.062;11.722;2023-02-15T05:20:32;75.28;;;47.25;;
47669;SDS011;33408;52.062;11.722;2023-02-15T05:22:59;115.68;;;46.65;;
47669;SDS011;33408;52.062;11.722;2023-02-15T05:25:26;85.45;;;48.45;;
47669;SDS011;33408;52.062;11.722;2023-02-15T05:28:09;76.10;;;45.22;;
47669;SDS011;33408;52.062;11.722;2023-02-15T05:30:46;114.95;;;45.17;;
47669;SDS011;33408;52.062;11.722;2023-02-15T05:33:13;111.15;;;44.28;;
47669;SDS011;33408;52.062;11.722;2023-02-15T05:35:40;92.22;;;41.17;;
47669;SDS011;33408;52.062;11.722;2023-02-15T05:38:07;101.03;;;44.28;;
47669;SDS011;33408;52.062;11.722;2023-02-15T05:40:34;125.22;;;43.50;;
47669;SDS011;33408;52.062;11.722;2023-02-15T05:43:00;87.63;;;44.45;;
47669;SDS011;33408;52.062;11.722;2023-02-15T05:45:27;98.40;;;43.35;;
47669;SDS011;33408;52.062;11.722;2023-02-15T05:47:55;171.35;;;42.03;;
47669;SDS011;33408;52.062;11.722;2023-02-15T05:50:23;141.88;;;42.58;;
47669;SDS011;33408;52.062;11.722;2023-02-15T05:52:49;93.53;;;40.28;;
47669;SDS011;33408;52.062;11.722;2023-02-15T05:55:16;138.00;;;39.95;;
47669;SDS011;33408;52.062;11.722;2023-02-15T05:57:43;130.30;;;38.25;;
47669;SDS011;33408;52.062;11.722;2023-02-15T06:00:10;105.70;;;37.63;;
47669;SDS011;33408;52.062;11.722;2023-02-15T06:02:38;100.95;;;40.50;;
47669;SDS011;33408;52.062;11.722;2023-02-15T06:05:07;182.48;;;42.85;;
47669;SDS011;33408;52.062;11.722;2023-02-15T06:07:34;118.43;;;38.30;;
47669;SDS011;33408;52.062;11.722;2023-02-15T06:10:01;159.02;;;40.75;;
47669;SDS011;33408;52.062;11.722;2023-02-15T06:12:28;124.63;;;36.78;;
47669;SDS011;33408;52.062;11.722;2023-02-15T06:14:55;111.78;;;34.10;;
47669;SDS011;33408;52.062;11.722;2023-02-15T06:17:21;89.57;;;35.65;;
47669;SDS011;33408;52.062;11.722;2023-02-15T06:19:48;101.07;;;36.33;;
47669;SDS011;33408;52.062;11.722;2023-02-15T06:22:16;93.60;;;34.97;;
47669;SDS011;33408;52.062;11.722;2023-02-15T06:24:42;98.00;;;37.00;;
47669;SDS011;33408;52.062;11.722;2023-02-15T06:27:09;108.13;;;34.25;;
47669;SDS011;33408;52.062;11.722;2023-02-15T06:29:36;60.45;;;36.13;;
47669;SDS011;33408;52.062;11.722;2023-02-15T06:32:03;89.45;;;34.38;;
47669;SDS011;33408;52.062;11.722;2023-02-15T06:34:30;81.00;;;35.22;;
47669;SDS011;33408;52.062;11.722;2023-02-15T06:36:57;96.28;;;34.70;;
47669;SDS011;33408;52.062;11.722;2023-02-15T06:39:25;90.45;;;33.67;;
47669;SDS011;33408;52.062;11.722;2023-02-15T06:41:51;94.50;;;33.78;;
47669;SDS011;33408;52.062;11.722;2023-02-15T06:44:20;72.32;;;32.67;;
47669;SDS011;33408;52.062;11.722;2023-02-15T06:46:46;77.85;;;33.13;;
47669;SDS011;33408;52.062;11.722;2023-02-15T06:49:13;90.57;;;33.05;;
47669;SDS011;33408;52.062;11.722;2023-02-15T06:51:40;83.53;;;30.90;;
47669;SDS011;33408;52.062;11.722;2023-02-15T06:54:06;76.03;;;31.98;;
47669;SDS011;33408;52.062;11.722;2023-02-15T06:56:34;64.35;;;32.20;;
47669;SDS011;33408;52.062;11.722;2023-02-15T06:59:01;89.07;;;33.53;;
47669;SDS011;33408;52.062;11.722;2023-02-15T07:01:27;77.88;;;33.05;;
47669;SDS011;33408;52.062;11.722;2023-02-15T07:03:54;66.20;;;30.92;;
47669;SDS011;33408;52.062;11.722;2023-02-15T07:06:20;67.70;;;32.33;;
47669;SDS011;33408;52.062;11.722;2023-02-15T07:08:47;88.00;;;32.83;;
47669;SDS011;33408;52.062;11.722;2023-02-15T07:11:14;93.85;;;32.13;;
47669;SDS011;33408;52.062;11.722;2023-02-15T07:13:59;83.03;;;32.03;;
47669;SDS011;33408;52.062;11.722;2023-02-15T07:16:26;105.60;;;32.67;;
47669;SDS011;33408;52.062;11.722;2023-02-15T07:18:53;71.78;;;30.08;;
47669;SDS011;33408;52.062;11.722;2023-02-15T07:21:19;60.78;;;30.92;;
47669;SDS011;33408;52.062;11.722;2023-02-15T07:23:46;69.32;;;31.83;;
47669;SDS011;33408;52.062;11.722;2023-02-15T07:26:12;53.45;;;31.63;;
47669;SDS011;33408;52.062;11.722;2023-02-15T07:28:39;67.90;;;31.88;;
47669;SDS011;33408;52.062;11.722;2023-02-15T07:31:07;72.15;;;29.95;;
47669;SDS011;33408;52.062;11.722;2023-02-15T07:33:34;95.80;;;30.92;;
47669;SDS011;33408;52.062;11.722;2023-02-15T07:36:01;74.28;;;30.42;;
47669;SDS011;33408;52.062;11.722;2023-02-15T07:38:30;91.38;;;31.05;;
47669;SDS011;33408;52.062;11.722;2023-02-15T07:40:58;88.97;;;29.90;;
47669;SDS011;33408;52.062;11.722;2023-02-15T07:43:25;55.17;;;30.48;;
47669;SDS011;33408;52.062;11.722;2023-02-15T07:45:51;79.85;;;36.22;;
47669;SDS011;33408;52.062;11.722;2023-02-15T07:48:19;74.40;;;30.58;;
47669;SDS011;33408;52.062;11.722;2023-02-15T07:50:47;96.05;;;28.23;;
47669;SDS011;33408;52.062;11.722;2023-02-15T07:53:13;52.83;;;28.52;;
47669;SDS011;33408;52.062;11.722;2023-02-15T07:55:40;83.47;;;26.25;;
47669;SDS011;33408;52.062;11.722;2023-02-15T07:58:07;60.95;;;25.88;;
47669;SDS011;33408;52.062;11.722;2023-02-15T08:00:33;51.00;;;25.17;;
47669;SDS011;33408;52.062;11.722;2023-02-15T08:03:23;63.97;;;25.73;;
47669;SDS011;33408;52.062;11.722;2023-02-15T08:05:51;66.32;;;24.75;;
47669;SDS011;33408;52.062;11.722;2023-02-15T08:08:23;52.08;;;23.48;;
47669;SDS011;33408;52.062;11.722;2023-02-15T08:13:42;42.42;;;21.77;;
47669;SDS011;33408;52.062;11.722;2023-02-15T08:16:18;45.63;;;24.17;;
47669;SDS011;33408;52.062;11.722;2023-02-15T08:18:47;49.72;;;23.40;;
47669;SDS011;33408;52.062;11.722;2023-02-15T08:21:13;53.90;;;22.98;;
47669;SDS011;33408;52.062;11.722;2023-02-15T08:23:40;50.95;;;23.15;;
47669;SDS011;33408;52.062;11.722;2023-02-15T08:26:06;45.65;;;22.67;;
47669;SDS011;33408;52.062;11.722;2023-02-15T08:28:33;54.10;;;25.70;;
47669;SDS011;33408;52.062;11.722;2023-02-15T08:31:03;40.97;;;22.88;;
47669;SDS011;33408;52.062;11.722;2023-02-15T08:33:31;54.58;;;29.08;;
47669;SDS011;33408;52.062;11.722;2023-02-15T08:36:02;46.55;;;23.63;;
47669;SDS011;33408;52.062;11.722;2023-02-15T08:38:30;37.60;;;23.33;;
47669;SDS011;33408;52.062;11.722;2023-02-15T08:40:57;28.38;;;22.08;;
47669;SDS011;33408;52.062;11.722;2023-02-15T08:43:23;38.05;;;22.92;;
47669;SDS011;33408;52.062;11.722;2023-02-15T08:45:50;59.58;;;25.20;;
47669;SDS011;33408;52.062;11.722;2023-02-15T08:48:16;42.33;;;21.65;;
47669;SDS011;33408;52.062;11.722;2023-02-15T08:50:43;30.88;;;20.65;;
47669;SDS011;33408;52.062;11.722;2023-02-15T08:53:11;36.40;;;19.50;;
47669;SDS011;33408;52.062;11.722;2023-02-15T08:55:37;45.63;;;19.05;;
47669;SDS011;33408;52.062;11.722;2023-02-15T08:58:04;32.55;;;20.60;;
47669;SDS011;33408;52.062;11.722;2023-02-15T09:00:31;26.08;;;20.45;;
47669;SDS011;33408;52.062;11.722;2023-02-15T09:02:58;34.78;;;20.17;;
47669;SDS011;33408;52.062;11.722;2023-02-15T09:05:24;39.13;;;20.38;;
47669;SDS011;33408;52.062;11.722;2023-02-15T09:07:51;34.03;;;21.17;;
47669;SDS011;33408;52.062;11.722;2023-02-15T09:10:19;35.28;;;18.02;;
47669;SDS011;33408;52.062;11.722;2023-02-15T09:12:46;27.45;;;18.23;;
47669;SDS011;33408;52.062;11.722;2023-02-15T09:15:15;24.27;;;17.33;;
47669;SDS011;33408;52.062;11.722;2023-02-15T09:17:41;34.83;;;16.38;;
47669;SDS011;33408;52.062;11.722;2023-02-15T09:20:08;23.58;;;17.13;;
47669;SDS011;33408;52.062;11.722;2023-02-15T09:22:35;30.65;;;17.60;;
47669;SDS011;33408;52.062;11.722;2023-02-15T09:25:01;29.63;;;17.20;;
47669;SDS011;33408;52.062;11.722;2023-02-15T09:27:30;21.65;;;16.15;;
47669;SDS011;33408;52.062;11.722;2023-02-15T09:29:56;26.80;;;16.90;;
47669;SDS011;33408;52.062;11.722;2023-02-15T09:32:23;20.38;;;16.13;;
47669;SDS011;33408;52.062;11.722;2023-02-15T09:34:50;21.02;;;16.77;;
47669;SDS011;33408;52.062;11.722;2023-02-15T09:37:16;28.17;;;17.70;;
47669;SDS011;33408;52.062;11.722;2023-02-15T09:39:43;27.98;;;17.05;;
47669;SDS011;33408;52.062;11.722;2023-02-15T09:42:21;28.08;;;17.15;;
47669;SDS011;33408;52.062;11.722;2023-02-15T09:45:04;30.40;;;17.35;;
47669;SDS011;33408;52.062;11.722;2023-02-15T09:47:43;22.98;;;15.90;;
47669;SDS011;33408;52.062;11.722;2023-02-15T09:50:28;29.55;;;16.25;;
47669;SDS011;33408;52.062;11.722;2023-02-15T09:53:22;30.23;;;17.38;;
47669;SDS011;33408;52.062;11.722;2023-02-15T09:56:02;22.02;;;15.68;;
47669;SDS011;33408;52.062;11.722;2023-02-15T09:58:39;20.73;;;15.95;;
47669;SDS011;33408;52.062;11.722;2023-02-15T10:01:13;21.75;;;16.17;;
47669;SDS011;33408;52.062;11.722;2023-02-15T10:03:53;19.90;;;15.77;;
47669;SDS011;33408;52.062;11.722;2023-02-15T10:06:35;27.08;;;17.70;;
47669;SDS011;33408;52.062;11.722;2023-02-15T10:12:06;24.77;;;16.83;;
47669;SDS011;33408;52.062;11.722;2023-02-15T10:14:56;23.42;;;15.48;;
47669;SDS011;33408;52.062;11.722;2023-02-15T10:17:40;20.70;;;15.82;;
47669;SDS011;33408;52.062;11.722;2023-02-15T10:20:19;19.23;;;14.35;;
47669;SDS011;33408;52.062;11.722;2023-02-15T10:23:07;20.25;;;15.43;;
47669;SDS011;33408;52.062;11.722;2023-02-15T10:25:46;19.30;;;15.07;;
47669;SDS011;33408;52.062;11.722;2023-02-15T10:28:17;20.80;;;14.83;;
47669;SDS011;33408;52.062;11.722;2023-02-15T10:30:47;19.05;;;15.32;;
47669;SDS011;33408;52.062;11.722;2023-02-15T10:33:20;19.55;;;14.65;;
47669;SDS011;33408;52.062;11.722;2023-02-15T10:36:01;18.27;;;14.40;;
47669;SDS011;33408;52.062;11.722;2023-02-15T10:38:36;18.92;;;15.52;;
47669;SDS011;33408;52.062;11.722;2023-02-15T10:41:14;19.53;;;15.33;;
47669;SDS011;33408;52.062;11.722;2023-02-15T10:44:05;21.17;;;15.55;;
47669;SDS011;33408;52.062;11.722;2023-02-15T10:47:06;19.23;;;14.77;;
47669;SDS011;33408;52.062;11.722;2023-02-15T10:49:59;17.58;;;13.80;;
47669;SDS011;33408;52.062;11.722;2023-02-15T10:52:41;18.98;;;14.65;;
47669;SDS011;33408;52.062;11.722;2023-02-15T10:55:23;18.00;;;14.52;;
47669;SDS011;33408;52.062;11.722;2023-02-15T10:58:03;22.23;;;15.45;;
47669;SDS011;33408;52.062;11.722;2023-02-15T11:00:39;19.65;;;14.68;;
47669;SDS011;33408;52.062;11.722;2023-02-15T11:03:17;20.35;;;13.98;;
47669;SDS011;33408;52.062;11.722;2023-02-15T11:05:56;22.58;;;16.13;;
47669;SDS011;33408;52.062;11.722;2023-02-15T11:08:29;20.60;;;15.70;;
47669;SDS011;33408;52.062;11.722;2023-02-15T11:11:01;16.55;;;13.52;;
47669;SDS011;33408;52.062;11.722;2023-02-15T11:13:32;18.10;;;14.38;;
47669;SDS011;33408;52.062;11.722;2023-02-15T11:16:03;16.83;;;13.80;;
47669;SDS011;33408;52.062;11.722;2023-02-15T11:18:37;17.63;;;14.10;;
47669;SDS011;33408;52.062;11.722;2023-02-15T11:21:09;18.08;;;13.65;;
47669;SDS011;33408;52.062;11.722;2023-02-15T11:23:40;19.77;;;15.07;;
47669;SDS011;33408;52.062;11.722;2023-02-15T11:26:11;19.48;;;14.20;;
47669;SDS011;33408;52.062;11.722;2023-02-15T11:28:43;17.83;;;14.20;;
47669;SDS011;33408;52.062;11.722;2023-02-15T11:31:13;20.48;;;17.67;;
47669;SDS011;33408;52.062;11.722;2023-02-15T11:33:45;20.80;;;17.40;;
47669;SDS011;33408;52.062;11.722;2023-02-15T11:36:15;18.40;;;14.90;;
47669;SDS011;33408;52.062;11.722;2023-02-15T11:38:45;21.05;;;18.75;;
47669;SDS011;33408;52.062;11.722;2023-02-15T11:41:18;19.42;;;16.55;;
47669;SDS011;33408;52.062;11.722;2023-02-15T11:43:49;18.15;;;14.13;;
47669;SDS011;33408;52.062;11.722;2023-02-15T11:46:22;15.45;;;13.10;;
47669;SDS011;33408;52.062;11.722;2023-02-15T11:48:50;17.90;;;14.40;;
47669;SDS011;33408;52.062;11.722;2023-02-15T11:51:17;18.70;;;16.40;;
47669;SDS011;33408;52.062;11.722;2023-02-15T11:53:46;20.15;;;16.73;;
47669;SDS011;33408;52.062;11.722;2023-02-15T11:56:14;15.20;;;12.65;;
47669;SDS011;33408;52.062;11.722;2023-02-15T11:58:43;16.25;;;13.50;;
47669;SDS011;33408;52.062;11.722;2023-02-15T12:01:14;26.50;;;22.17;;
47669;SDS011;33408;52.062;11.722;2023-02-15T12:03:45;24.17;;;21.30;;
47669;SDS011;33408;52.062;11.722;2023-02-15T12:06:17;18.45;;;14.98;;
47669;SDS011;33408;52.062;11.722;2023-02-15T12:08:50;18.38;;;14.77;;
47669;SDS011;33408;52.062;11.722;2023-02-15T12:11:22;18.52;;;15.15;;
47669;SDS011;33408;52.062;11.722;2023-02-15T12:13:55;17.10;;;13.20;;
47669;SDS011;33408;52.062;11.722;2023-02-15T12:16:23;20.85;;;18.42;;
47669;SDS011;33408;52.062;11.722;2023-02-15T12:18:52;16.73;;;13.30;;
47669;SDS011;33408;52.062;11.722;2023-02-15T12:21:25;18.20;;;13.70;;
47669;SDS011;33408;52.062;11.722;2023-02-15T12:23:56;16.63;;;12.82;;
47669;SDS011;33408;52.062;11.722;2023-02-15T12:26:27;16.70;;;13.60;;
47669;SDS011;33408;52.062;11.722;2023-02-15T12:28:55;16.17;;;13.60;;
47669;SDS011;33408;52.062;11.722;2023-02-15T12:31:26;17.05;;;13.23;;
47669;SDS011;33408;52.062;11.722;2023-02-15T12:33:57;21.52;;;15.60;;
47669;SDS011;33408;52.062;11.722;2023-02-15T12:36:29;38.72;;;32.08;;
47669;SDS011;33408;52.062;11.722;2023-02-15T12:39:05;16.05;;;13.57;;
47669;SDS011;33408;52.062;11.722;2023-02-15T12:41:45;26.80;;;20.48;;
47669;SDS011;33408;52.062;11.722;2023-02-15T12:44:23;20.77;;;16.88;;
47669;SDS011;33408;52.062;11.722;2023-02-15T12:46:55;14.63;;;12.00;;
47669;SDS011;33408;52.062;11.722;2023-02-15T12:49:23;20.88;;;14.40;;
47669;SDS011;33408;52.062;11.722;2023-02-15T12:51:53;32.78;;;24.23;;
47669;SDS011;33408;52.062;11.722;2023-02-15T12:54:37;15.55;;;12.45;;
47669;SDS011;33408;52.062;11.722;2023-02-15T12:57:13;16.10;;;12.30;;
47669;SDS011;33408;52.062;11.722;2023-02-15T12:59:52;16.73;;;13.88;;
47669;SDS011;33408;52.062;11.722;2023-02-15T13:02:22;16.63;;;13.60;;
47669;SDS011;33408;52.062;11.722;2023-02-15T13:04:51;14.57;;;11.77;;
47669;SDS011;33408;52.062;11.722;2023-02-15T13:07:20;16.02;;;12.35;;
47669;SDS011;33408;52.062;11.722;2023-02-15T13:09:47;14.43;;;11.85;;
47669;SDS011;33408;52.062;11.722;2023-02-15T13:12:17;16.05;;;11.68;;
47669;SDS011;33408;52.062;11.722;2023-02-15T13:14:47;16.25;;;10.95;;
47669;SDS011;33408;52.062;11.722;2023-02-15T13:17:16;14.18;;;11.13;;
47669;SDS011;33408;52.062;11.722;2023-02-15T13:19:49;14.27;;;11.32;;
47669;SDS011;33408;52.062;11.722;2023-02-15T13:22:20;14.07;;;11.63;;
47669;SDS011;33408;52.062;11.722;2023-02-15T13:24:54;13.82;;;11.10;;
47669;SDS011;33408;52.062;11.722;2023-02-15T13:27:24;13.73;;;10.45;;
47669;SDS011;33408;52.062;11.722;2023-02-15T13:32:26;14.55;;;11.00;;
47669;SDS011;33408;52.062;11.722;2023-02-15T13:34:56;12.75;;;10.23;;
47669;SDS011;33408;52.062;11.722;2023-02-15T13:37:30;13.60;;;10.88;;
47669;SDS011;33408;52.062;11.722;2023-02-15T13:40:12;14.70;;;11.48;;
47669;SDS011;33408;52.062;11.722;2023-02-15T13:42:42;14.70;;;11.27;;
47669;SDS011;33408;52.062;11.722;2023-02-15T13:45:21;13.30;;;10.68;;
47669;SDS011;33408;52.062;11.722;2023-02-15T13:48:00;14.18;;;11.57;;
47669;SDS011;33408;52.062;11.722;2023-02-15T13:50:35;17.13;;;13.82;;
47669;SDS011;33408;52.062;11.722;2023-02-15T13:53:20;14.75;;;10.35;;
47669;SDS011;33408;52.062;11.722;2023-02-15T13:55:57;17.25;;;14.13;;
47669;SDS011;33408;52.062;11.722;2023-02-15T14:01:31;13.25;;;10.30;;
47669;SDS011;33408;52.062;11.722;2023-02-15T14:07:09;13.43;;;10.27;;
47669;SDS011;33408;52.062;11.722;2023-02-15T14:09:48;18.70;;;14.52;;
47669;SDS011;33408;52.062;11.722;2023-02-15T14:12:27;13.73;;;10.55;;
47669;SDS011;33408;52.062;11.722;2023-02-15T14:15:09;14.02;;;10.82;;
47669;SDS011;33408;52.062;11.722;2023-02-15T14:17:51;12.93;;;9.57;;
47669;SDS011;33408;52.062;11.722;2023-02-15T14:20:27;15.27;;;10.98;;
47669;SDS011;33408;52.062;11.722;2023-02-15T14:23:05;12.75;;;10.43;;
47669;SDS011;33408;52.062;11.722;2023-02-15T14:25:40;12.38;;;10.35;;
47669;SDS011;33408;52.062;11.722;2023-02-15T14:28:12;14.52;;;10.02;;
47669;SDS011;33408;52.062;11.722;2023-02-15T14:30:44;13.95;;;10.48;;
47669;SDS011;33408;52.062;11.722;2023-02-15T14:33:23;13.35;;;10.15;;
47669;SDS011;33408;52.062;11.722;2023-02-15T14:35:56;12.65;;;10.30;;
47669;SDS011;33408;52.062;11.722;2023-02-15T14:38:25;12.95;;;9.65;;
47669;SDS011;33408;52.062;11.722;2023-02-15T14:41:09;14.80;;;11.15;;
47669;SDS011;33408;52.062;11.722;2023-02-15T14:43:47;19.40;;;15.73;;
47669;SDS011;33408;52.062;11.722;2023-02-15T14:46:24;14.77;;;11.02;;
47669;SDS011;33408;52.062;11.722;2023-02-15T14:57:29;12.10;;;10.18;;
47669;SDS011;33408;52.062;11.722;2023-02-15T14:59:58;13.52;;;10.32;;
47669;SDS011;33408;52.062;11.722;2023-02-15T15:02:29;12.15;;;10.52;;